createdAt,value
2022-12-17T00:00:49.172Z,-0.26
2022-12-17T00:03:34.989Z,-0.29
2022-12-17T00:06:20.478Z,-0.30
2022-12-17T00:09:05.190Z,-0.31
2022-12-17T00:11:50.094Z,-0.35
2022-12-17T00:14:35.209Z,-0.22
2022-12-17T00:17:20.630Z,-0.32
2022-12-17T00:20:05.899Z,-0.33
2022-12-17T00:22:50.906Z,-0.20
2022-12-17T00:25:35.764Z,-0.31
2022-12-17T00:28:20.767Z,-0.33
2022-12-17T00:31:11.860Z,-0.33
2022-12-17T00:33:56.886Z,-0.21
2022-12-17T00:36:42.292Z,-0.18
2022-12-17T00:39:27.406Z,-0.31
2022-12-17T00:42:12.588Z,-0.32
2022-12-17T00:44:57.646Z,-0.36
2022-12-17T00:47:42.972Z,-0.34
2022-12-17T00:50:29.198Z,-0.24
2022-12-17T00:53:15.575Z,-0.17
2022-12-17T00:56:01.056Z,-0.15
2022-12-17T00:58:46.311Z,-0.19
2022-12-17T01:01:31.286Z,-0.27
2022-12-17T01:04:17.157Z,-0.15
2022-12-17T01:07:01.962Z,-0.30
2022-12-17T01:09:48.621Z,-0.18
2022-12-17T01:12:33.531Z,-0.15
2022-12-17T01:15:18.766Z,-0.29
2022-12-17T01:18:03.578Z,-0.17
2022-12-17T01:20:50.326Z,-0.30
2022-12-17T01:23:36.155Z,-0.17
2022-12-17T01:26:21.403Z,-0.32
2022-12-17T01:29:06.579Z,-0.34
2022-12-17T01:31:51.866Z,-0.22
2022-12-17T01:34:36.716Z,-0.35
2022-12-17T01:37:22.615Z,-0.27
2022-12-17T01:40:07.314Z,-0.33
2022-12-17T01:43:04.435Z,-0.37
2022-12-17T01:45:57.373Z,-0.23
2022-12-17T01:48:48.724Z,-0.41
2022-12-17T01:51:34.495Z,-0.25
2022-12-17T01:54:20.780Z,-0.41
2022-12-17T01:57:06.254Z,-0.36
2022-12-17T02:00:12.825Z,-0.25
2022-12-17T02:03:01.649Z,-0.39
2022-12-17T02:06:13.361Z,-0.25
2022-12-17T02:09:39.534Z,-0.35
2022-12-17T02:12:30.535Z,-0.39
2022-12-17T02:15:31.946Z,-0.26
2022-12-17T02:18:23.674Z,-0.23
2022-12-17T02:21:12.489Z,-0.39
2022-12-17T02:24:21.283Z,-0.38
2022-12-17T02:27:14.240Z,-0.39
2022-12-17T02:30:03.627Z,-0.28
2022-12-17T02:32:53.021Z,-0.41
2022-12-17T02:35:46.842Z,-0.43
2022-12-17T02:38:36.209Z,-0.27
2022-12-17T02:41:24.059Z,-0.45
2022-12-17T02:44:12.834Z,-0.29
2022-12-17T02:47:00.526Z,-0.45
2022-12-17T02:49:45.717Z,-0.46
2022-12-17T02:52:35.132Z,-0.50
2022-12-17T02:55:20.587Z,-0.50
2022-12-17T02:58:06.463Z,-0.35
2022-12-17T03:00:51.537Z,-0.49
2022-12-17T03:03:37.200Z,-0.49
2022-12-17T03:06:23.183Z,-0.36
2022-12-17T03:09:07.978Z,-0.48
2022-12-17T03:11:54.430Z,-0.51
2022-12-17T03:14:39.758Z,-0.51
2022-12-17T03:17:24.931Z,-0.38
2022-12-17T03:20:10.039Z,-0.36
2022-12-17T03:22:54.806Z,-0.51
2022-12-17T03:25:40.291Z,-0.37
2022-12-17T03:28:28.778Z,-0.36
2022-12-17T03:31:16.789Z,-0.52
2022-12-17T03:34:01.910Z,-0.60
2022-12-17T03:36:46.963Z,-0.58
2022-12-17T03:39:31.974Z,-0.40
2022-12-17T03:42:33.906Z,-0.56
2022-12-17T03:45:19.160Z,-0.57
2022-12-17T03:48:04.202Z,-0.43
2022-12-17T03:51:08.901Z,-0.56
2022-12-17T03:53:54.310Z,-0.64
2022-12-17T03:56:39.426Z,-0.49
2022-12-17T03:59:27.712Z,-0.67
2022-12-17T04:02:13.285Z,-0.64
2022-12-17T04:04:58.861Z,-0.66
2022-12-17T04:07:44.089Z,-0.52
2022-12-17T04:10:29.573Z,-0.50
2022-12-17T04:13:14.524Z,-0.50
2022-12-17T04:15:59.417Z,-0.50
2022-12-17T04:18:44.713Z,-0.51
2022-12-17T04:21:30.224Z,-0.67
2022-12-17T04:24:15.036Z,-0.68
2022-12-17T04:27:00.392Z,-0.72
2022-12-17T04:29:45.803Z,-0.57
2022-12-17T04:32:35.037Z,-0.71
2022-12-17T04:35:20.522Z,-0.76
2022-12-17T04:38:05.951Z,-0.73
2022-12-17T04:40:51.319Z,-0.81
2022-12-17T04:43:38.585Z,-0.78
2022-12-17T04:46:24.353Z,-0.80
2022-12-17T04:49:09.599Z,-0.66
2022-12-17T04:51:54.866Z,-0.80
2022-12-17T04:54:39.638Z,-0.68
2022-12-17T04:57:24.619Z,-0.66
2022-12-17T05:00:09.762Z,-0.80
2022-12-17T05:02:54.829Z,-0.82
2022-12-17T05:05:45.974Z,-0.81
2022-12-17T05:08:30.895Z,-0.80
2022-12-17T05:11:21.789Z,-0.67
2022-12-17T05:14:06.847Z,-0.68
2022-12-17T05:16:52.399Z,-0.80
2022-12-17T05:19:37.794Z,-0.66
2022-12-17T05:22:22.866Z,-0.79
2022-12-17T05:25:07.719Z,-0.82
2022-12-17T05:27:52.515Z,-0.68
2022-12-17T05:30:37.839Z,-0.64
2022-12-17T05:33:23.286Z,-0.83
2022-12-17T05:36:08.752Z,-0.82
2022-12-17T05:39:00.970Z,-0.84
2022-12-17T05:41:45.835Z,-0.69
2022-12-17T05:44:30.747Z,-0.79
2022-12-17T05:47:15.502Z,-0.70
2022-12-17T05:50:00.934Z,-0.67
2022-12-17T05:52:46.480Z,-0.82
2022-12-17T05:55:31.935Z,-0.84
2022-12-17T05:58:24.257Z,-0.89
2022-12-17T06:01:13.771Z,-0.72
2022-12-17T06:03:59.132Z,-0.88
2022-12-17T06:06:44.298Z,-0.75
2022-12-17T06:09:32.162Z,-0.92
2022-12-17T06:12:17.115Z,-0.77
2022-12-17T06:15:01.950Z,-0.94
2022-12-17T06:17:47.262Z,-0.81
2022-12-17T06:20:32.660Z,-0.93
2022-12-17T06:23:22.570Z,-0.82
2022-12-17T06:26:08.116Z,-0.94
2022-12-17T06:28:53.478Z,-0.83
2022-12-17T06:31:38.357Z,-0.98
2022-12-17T06:34:23.428Z,-0.98
2022-12-17T06:37:08.928Z,-1.00
2022-12-17T06:39:53.800Z,-1.05
2022-12-17T06:42:39.098Z,-1.07
2022-12-17T06:45:24.918Z,-0.92
2022-12-17T06:48:10.167Z,-1.06
2022-12-17T06:50:58.382Z,-0.96
2022-12-17T06:53:43.742Z,-0.91
2022-12-17T06:56:28.445Z,-0.94
2022-12-17T06:59:13.257Z,-1.03
2022-12-17T07:01:58.153Z,-1.06
2022-12-17T07:04:43.381Z,-1.06
2022-12-17T07:07:28.106Z,-1.05
2022-12-17T07:10:14.510Z,-1.05
2022-12-17T07:12:59.752Z,-0.92
2022-12-17T07:15:45.146Z,-1.08
2022-12-17T07:18:30.688Z,-0.89
2022-12-17T07:21:15.372Z,-1.01
2022-12-17T07:24:00.610Z,-1.06
2022-12-17T07:26:45.368Z,-1.05
2022-12-17T07:29:30.263Z,-0.93
2022-12-17T07:32:16.570Z,-0.92
2022-12-17T07:35:01.365Z,-1.05
2022-12-17T07:37:46.094Z,-1.08
2022-12-17T07:40:30.931Z,-0.92
2022-12-17T07:43:15.879Z,-1.03
2022-12-17T07:46:00.732Z,-1.06
2022-12-17T07:48:45.905Z,-1.10
2022-12-17T07:51:31.251Z,-0.97
2022-12-17T07:54:16.044Z,-1.07
2022-12-17T07:57:01.685Z,-0.96
2022-12-17T07:59:46.528Z,-1.05
2022-12-17T08:02:31.686Z,-1.16
2022-12-17T08:05:16.706Z,-0.94
2022-12-17T08:08:01.482Z,-0.92
2022-12-17T08:10:46.374Z,-0.93
2022-12-17T08:13:31.560Z,-0.92
2022-12-17T08:16:16.575Z,-0.91
2022-12-17T08:19:01.742Z,-1.15
2022-12-17T08:21:46.659Z,-1.08
2022-12-17T08:24:31.380Z,-1.07
2022-12-17T08:27:16.840Z,-0.96
2022-12-17T08:30:02.348Z,-0.93
2022-12-17T08:32:47.740Z,-1.04
2022-12-17T08:35:33.163Z,-0.91
2022-12-17T08:38:23.848Z,-1.01
2022-12-17T08:41:09.145Z,-1.00
2022-12-17T08:43:54.659Z,-0.90
2022-12-17T08:46:39.702Z,-0.89
2022-12-17T08:49:24.587Z,-1.02
2022-12-17T08:52:09.395Z,-0.89
2022-12-17T08:54:54.922Z,-1.08
2022-12-17T08:57:39.856Z,-1.06
2022-12-17T09:00:25.706Z,-1.08
2022-12-17T09:03:19.270Z,-0.94
2022-12-17T09:06:05.059Z,-1.06
2022-12-17T09:08:50.438Z,-1.07
2022-12-17T09:11:35.904Z,-0.95
2022-12-17T09:14:25.691Z,-1.06
2022-12-17T09:17:10.530Z,-1.09
2022-12-17T09:19:55.721Z,-0.96
2022-12-17T09:22:41.151Z,-1.01
2022-12-17T09:25:26.433Z,-1.09
2022-12-17T09:28:11.900Z,-1.14
2022-12-17T09:30:57.095Z,-0.99
2022-12-17T09:33:42.462Z,-0.97
2022-12-17T09:36:27.718Z,-0.97
2022-12-17T09:39:13.117Z,-0.96
2022-12-17T09:42:12.254Z,-1.07
2022-12-17T09:45:12.130Z,-1.09
2022-12-17T09:48:20.307Z,-0.99
2022-12-17T09:51:10.437Z,-0.98
2022-12-17T09:54:04.226Z,-0.98
2022-12-17T09:56:51.050Z,-1.16
2022-12-17T09:59:45.638Z,-1.17
2022-12-17T10:02:38.433Z,-1.04
2022-12-17T10:05:27.796Z,-1.12
2022-12-17T10:08:13.282Z,-1.12
2022-12-17T10:11:04.787Z,-1.00
2022-12-17T10:13:50.028Z,-0.99
2022-12-17T10:16:48.220Z,-1.09
2022-12-17T10:19:45.731Z,-1.08
2022-12-17T10:22:33.413Z,-1.10
2022-12-17T10:25:26.397Z,-0.97
2022-12-17T10:28:11.780Z,-0.94
2022-12-17T10:30:57.665Z,-0.97
2022-12-17T10:33:42.794Z,-1.11
2022-12-17T10:36:42.517Z,-0.99
2022-12-17T10:39:44.117Z,-1.12
2022-12-17T10:42:46.898Z,-1.00
2022-12-17T10:45:47.135Z,-1.10
2022-12-17T10:48:40.676Z,-1.17
2022-12-17T10:51:49.690Z,-1.03
2022-12-17T10:54:49.137Z,-1.17
2022-12-17T10:57:54.938Z,-1.10
2022-12-17T11:00:49.312Z,-0.99
2022-12-17T11:04:07.382Z,-0.97
2022-12-17T11:06:55.312Z,-0.95
2022-12-17T11:09:43.293Z,-0.93
2022-12-17T11:12:31.099Z,-1.10
2022-12-17T11:15:22.374Z,-1.03
2022-12-17T11:18:11.551Z,-0.90
2022-12-17T11:21:13.932Z,-0.86
2022-12-17T11:24:02.963Z,-0.84
2022-12-17T11:26:53.875Z,-1.06
2022-12-17T11:29:39.191Z,-0.96
2022-12-17T11:32:32.925Z,-0.96
2022-12-17T11:35:35.671Z,-0.96
2022-12-17T11:38:43.295Z,-0.93
2022-12-17T11:41:43.347Z,-0.82
2022-12-17T11:44:47.354Z,-0.93
2022-12-17T11:48:11.768Z,-0.85
2022-12-17T11:51:09.403Z,-0.93
2022-12-17T11:54:20.107Z,-0.83
2022-12-17T11:57:45.905Z,-0.92
2022-12-17T12:00:38.772Z,-0.96
2022-12-17T12:03:52.228Z,-0.85
2022-12-17T12:06:56.085Z,-0.85
2022-12-17T12:09:49.984Z,-0.96
2022-12-17T12:13:08.426Z,-0.97
2022-12-17T12:16:04.436Z,-0.85
2022-12-17T12:19:11.195Z,-0.97
2022-12-17T12:21:57.635Z,-0.83
2022-12-17T12:24:54.693Z,-0.79
2022-12-17T12:27:54.421Z,-0.91
2022-12-17T12:30:42.341Z,-0.78
2022-12-17T12:33:47.786Z,-0.85
2022-12-17T12:36:35.622Z,-0.88
2022-12-17T12:39:20.837Z,-0.79
2022-12-17T12:42:46.820Z,-0.86
2022-12-17T12:45:44.271Z,-0.89
2022-12-17T12:48:41.231Z,-0.78
2022-12-17T12:51:36.226Z,-0.76
2022-12-17T12:54:41.344Z,-0.88
2022-12-17T12:57:46.987Z,-0.77
2022-12-17T13:00:56.210Z,-0.91
2022-12-17T13:04:04.271Z,-0.93
2022-12-17T13:06:47.338Z,-0.88
2022-12-17T13:09:17.332Z,-0.91
2022-12-17T13:11:46.545Z,-0.79
2022-12-17T13:14:21.773Z,-0.94
2022-12-17T13:16:48.344Z,-0.81
2022-12-17T13:19:32.218Z,-0.92
2022-12-17T13:22:23.425Z,-0.88
2022-12-17T13:25:18.241Z,-0.79
2022-12-17T13:27:45.548Z,-0.78
2022-12-17T13:30:22.377Z,-0.77
2022-12-17T13:33:07.583Z,-0.93
2022-12-17T13:36:09.591Z,-0.81
2022-12-17T13:39:06.874Z,-0.80
2022-12-17T13:41:35.616Z,-0.81
2022-12-17T13:44:17.382Z,-0.82
2022-12-17T13:46:47.567Z,-0.97
2022-12-17T13:49:19.338Z,-0.85
2022-12-17T13:51:45.974Z,-0.84
2022-12-17T13:54:18.696Z,-1.03
2022-12-17T13:56:46.164Z,-1.00
2022-12-17T13:59:31.007Z,-1.03
2022-12-17T14:01:57.851Z,-0.90
2022-12-17T14:04:27.083Z,-1.03
2022-12-17T14:07:00.041Z,-1.04
2022-12-17T14:09:34.891Z,-1.05
2022-12-17T14:12:22.443Z,-1.09
2022-12-17T14:15:02.870Z,-0.93
2022-12-17T14:17:50.474Z,-1.07
2022-12-17T14:20:21.653Z,-0.99
2022-12-17T14:22:55.320Z,-0.97
2022-12-17T14:25:30.994Z,-1.22
2022-12-17T14:28:05.448Z,-1.17
2022-12-17T14:31:02.618Z,-1.04
2022-12-17T14:33:28.805Z,-1.19
2022-12-17T14:35:57.023Z,-1.31
2022-12-17T14:38:37.343Z,-1.09
2022-12-17T14:41:31.567Z,-1.32
2022-12-17T14:44:00.401Z,-1.22
2022-12-17T14:46:29.149Z,-1.23
2022-12-17T14:49:00.709Z,-1.23
2022-12-17T14:51:37.385Z,-1.12
2022-12-17T14:54:07.687Z,-1.35
2022-12-17T14:56:34.345Z,-1.18
2022-12-17T14:59:02.364Z,-1.15
2022-12-17T15:01:29.031Z,-1.35
2022-12-17T15:03:56.817Z,-1.40
2022-12-17T15:06:23.399Z,-1.24
2022-12-17T15:08:51.327Z,-1.21
2022-12-17T15:11:20.609Z,-1.46
2022-12-17T15:13:51.411Z,-1.52
2022-12-17T15:16:21.986Z,-1.30
2022-12-17T15:18:48.544Z,-1.28
2022-12-17T15:21:16.348Z,-1.36
2022-12-17T15:23:44.435Z,-1.41
2022-12-17T15:26:11.405Z,-1.39
2022-12-17T15:28:38.344Z,-1.43
2022-12-17T15:31:05.339Z,-1.29
2022-12-17T15:33:31.921Z,-1.47
2022-12-17T15:35:59.291Z,-1.33
2022-12-17T15:38:25.920Z,-1.47
2022-12-17T15:40:52.445Z,-1.33
2022-12-17T15:43:18.975Z,-1.29
2022-12-17T15:45:50.266Z,-1.28
2022-12-17T15:48:19.615Z,-1.26
2022-12-17T15:50:47.200Z,-1.43
2022-12-17T15:53:13.908Z,-1.47
2022-12-17T15:55:40.549Z,-1.33
2022-12-17T15:58:09.046Z,-1.48
2022-12-17T16:00:35.606Z,-1.53
2022-12-17T16:03:02.320Z,-1.41
2022-12-17T16:05:28.845Z,-1.34
2022-12-17T16:07:58.985Z,-1.37
2022-12-17T16:10:25.645Z,-1.32
2022-12-17T16:12:52.149Z,-1.48
2022-12-17T16:15:18.651Z,-1.53
2022-12-17T16:17:45.270Z,-1.56
2022-12-17T16:20:12.135Z,-1.45
2022-12-17T16:22:38.676Z,-1.61
2022-12-17T16:25:05.610Z,-1.46
2022-12-17T16:27:32.249Z,-1.46
2022-12-17T16:29:58.770Z,-1.46
2022-12-17T16:32:25.262Z,-1.71
2022-12-17T16:34:51.875Z,-1.55
2022-12-17T16:37:19.234Z,-1.81
2022-12-17T16:39:45.778Z,-1.79
2022-12-17T16:42:12.281Z,-1.62
2022-12-17T16:44:38.788Z,-1.68
2022-12-17T16:47:05.449Z,-1.72
2022-12-17T16:49:32.188Z,-1.79
2022-12-17T16:51:59.399Z,-1.66
2022-12-17T16:54:29.304Z,-1.82
2022-12-17T16:56:55.879Z,-1.89
2022-12-17T16:59:23.326Z,-1.71
2022-12-17T17:01:51.389Z,-1.71
2022-12-17T17:04:20.941Z,-1.85
2022-12-17T17:06:50.976Z,-1.96
2022-12-17T17:09:18.879Z,-1.73
2022-12-17T17:11:51.165Z,-1.69
2022-12-17T17:14:18.634Z,-1.88
2022-12-17T17:16:45.201Z,-1.73
2022-12-17T17:19:11.694Z,-1.72
2022-12-17T17:21:40.195Z,-1.86
2022-12-17T17:24:21.276Z,-1.86
2022-12-17T17:26:49.851Z,-1.79
2022-12-17T17:29:16.438Z,-1.67
2022-12-17T17:34:29.487Z,-1.65
2022-12-17T17:36:56.007Z,-1.88
2022-12-17T17:39:22.578Z,-1.90
2022-12-17T17:41:49.159Z,-1.95
2022-12-17T17:44:16.333Z,-1.74
2022-12-17T17:46:42.972Z,-1.69
2022-12-17T17:49:10.467Z,-1.69
2022-12-17T17:54:28.189Z,-1.73
2022-12-17T17:56:55.392Z,-1.69
2022-12-17T17:59:27.877Z,-1.70
2022-12-17T18:01:57.987Z,-1.99
2022-12-17T18:04:24.619Z,-2.03
2022-12-17T18:07:23.779Z,-1.85
2022-12-17T18:09:39.116Z,-1.82
2022-12-17T18:12:25.874Z,-2.10
2022-12-17T18:15:13.101Z,-2.13
2022-12-17T18:17:39.296Z,-1.94
2022-12-17T18:20:06.580Z,-2.15
2022-12-17T18:22:33.230Z,-1.97
2022-12-17T18:24:59.773Z,-1.95
2022-12-17T18:27:26.329Z,-2.09
2022-12-17T18:29:52.809Z,-1.97
2022-12-17T18:32:19.367Z,-2.16
2022-12-17T18:34:45.933Z,-2.20
2022-12-17T18:37:12.508Z,-1.99
2022-12-17T18:39:39.149Z,-2.11
2022-12-17T18:42:24.451Z,-2.16
2022-12-17T18:44:50.927Z,-2.23
2022-12-17T18:47:18.749Z,-2.18
2022-12-17T18:49:45.416Z,-2.06
2022-12-17T18:52:16.640Z,-2.03
2022-12-17T18:54:43.823Z,-2.02
2022-12-17T18:57:11.052Z,-2.18
2022-12-17T18:59:38.471Z,-2.07
2022-12-17T19:02:05.221Z,-2.06
2022-12-17T19:04:32.994Z,-2.32
2022-12-17T19:07:00.052Z,-2.16
2022-12-17T19:09:35.503Z,-2.14
2022-12-17T19:12:03.671Z,-2.34
2022-12-17T19:14:30.158Z,-2.34
2022-12-17T19:16:57.908Z,-2.21
2022-12-17T19:19:25.168Z,-2.46
2022-12-17T19:21:54.928Z,-2.25
2022-12-17T19:24:22.575Z,-2.22
2022-12-17T19:26:49.969Z,-2.19
2022-12-17T19:29:17.661Z,-2.32
2022-12-17T19:31:44.498Z,-2.39
2022-12-17T19:34:13.612Z,-2.49
2022-12-17T19:36:41.137Z,-2.45
2022-12-17T19:39:11.232Z,-2.30
2022-12-17T19:41:38.278Z,-2.28
2022-12-17T19:44:11.119Z,-2.46
2022-12-17T19:46:38.391Z,-2.64
2022-12-17T19:49:05.847Z,-2.39
2022-12-17T19:51:33.259Z,-2.37
2022-12-17T19:54:06.502Z,-2.39
2022-12-17T19:56:34.883Z,-2.38
2022-12-17T19:59:04.834Z,-2.35
2022-12-17T20:01:33.361Z,-2.33
2022-12-17T20:04:00.559Z,-2.33
2022-12-17T20:06:31.087Z,-2.30
2022-12-17T20:08:59.051Z,-2.53
2022-12-17T20:11:35.365Z,-2.36
2022-12-17T20:14:07.380Z,-2.38
2022-12-17T20:16:37.510Z,-2.57
2022-12-17T20:19:05.878Z,-2.61
2022-12-17T20:21:32.765Z,-2.70
2022-12-17T20:23:59.384Z,-2.52
2022-12-17T20:26:26.049Z,-2.45
2022-12-17T20:28:55.818Z,-2.43
2022-12-17T20:31:22.589Z,-2.41
2022-12-17T20:33:49.218Z,-2.39
2022-12-17T20:36:18.273Z,-2.36
2022-12-17T20:38:45.676Z,-2.53
2022-12-17T20:41:20.875Z,-2.60
2022-12-17T20:43:48.115Z,-2.48
2022-12-17T20:46:15.382Z,-2.70
2022-12-17T20:48:43.412Z,-2.72
2022-12-17T20:51:12.445Z,-2.55
2022-12-17T20:53:39.617Z,-2.74
2022-12-17T20:56:09.937Z,-2.55
2022-12-17T20:58:38.014Z,-2.53
2022-12-17T21:01:11.147Z,-2.65
2022-12-17T21:03:38.152Z,-2.69
2022-12-17T21:06:13.923Z,-2.60
2022-12-17T21:08:47.719Z,-2.71
2022-12-17T21:11:17.772Z,-2.56
2022-12-17T21:13:44.451Z,-2.57
2022-12-17T21:16:13.751Z,-2.77
2022-12-17T21:18:40.808Z,-2.60
2022-12-17T21:21:18.044Z,-2.76
2022-12-17T21:23:46.695Z,-2.63
2022-12-17T21:26:17.541Z,-2.62
2022-12-17T21:28:46.540Z,-2.85
2022-12-17T21:31:22.957Z,-2.80
2022-12-17T21:33:51.036Z,-2.67
2022-12-17T21:36:20.792Z,-2.65
2022-12-17T21:38:48.593Z,-2.65
2022-12-17T21:41:18.533Z,-2.95
2022-12-17T21:43:45.595Z,-2.75
2022-12-17T21:46:13.839Z,-2.91
2022-12-17T21:48:42.651Z,-2.72
2022-12-17T21:51:11.851Z,-2.95
2022-12-17T21:53:42.242Z,-2.78
2022-12-17T21:56:15.737Z,-2.73
2022-12-17T21:58:44.921Z,-2.74
2022-12-17T22:01:18.524Z,-2.83
2022-12-17T22:03:47.670Z,-2.93
2022-12-17T22:06:21.417Z,-2.83
2022-12-17T22:08:49.201Z,-2.84
2022-12-17T22:11:21.074Z,-3.13
2022-12-17T22:14:08.517Z,-3.07
2022-12-17T22:16:39.745Z,-2.90
2022-12-17T22:19:07.491Z,-2.87
2022-12-17T22:21:39.733Z,-2.84
2022-12-17T22:24:06.852Z,-3.13
2022-12-17T22:26:36.482Z,-3.08
2022-12-17T22:29:03.243Z,-2.93
2022-12-17T22:31:48.370Z,-2.91
2022-12-17T22:34:36.204Z,-3.10
2022-12-17T22:39:23.696Z,-3.14
2022-12-17T22:44:31.775Z,-2.93
2022-12-17T22:44:31.829Z,-2.96
2022-12-17T22:45:43.838Z,-2.95
2022-12-17T22:48:11.918Z,-3.10
2022-12-17T22:50:47.146Z,-2.97
2022-12-17T22:53:26.403Z,-2.98
2022-12-17T22:55:53.086Z,-3.04
2022-12-17T22:58:20.587Z,-3.24
2022-12-17T23:00:47.154Z,-3.08
2022-12-17T23:03:13.808Z,-3.05
2022-12-17T23:05:40.495Z,-3.31
2022-12-17T23:08:07.116Z,-3.13
2022-12-17T23:10:33.666Z,-3.12
2022-12-17T23:13:00.533Z,-3.13
2022-12-17T23:15:36.557Z,-3.33
2022-12-17T23:18:06.327Z,-3.20
2022-12-17T23:20:35.291Z,-3.22
2022-12-17T23:23:02.014Z,-3.40
2022-12-17T23:25:29.194Z,-3.31
2022-12-17T23:27:56.059Z,-3.29
2022-12-17T23:30:22.691Z,-3.39
2022-12-17T23:32:49.976Z,-3.47
2022-12-17T23:35:16.483Z,-3.36
2022-12-17T23:37:42.959Z,-3.27
2022-12-17T23:40:10.711Z,-3.28
2022-12-17T23:42:38.165Z,-3.34
2022-12-17T23:45:06.056Z,-3.51
2022-12-17T23:47:32.584Z,-3.37
2022-12-17T23:49:59.205Z,-3.52
2022-12-17T23:52:25.856Z,-3.40
2022-12-17T23:54:52.378Z,-3.37
2022-12-17T23:57:19.735Z,-3.38
2022-12-17T23:59:46.262Z,-3.39
